Time;durP1;ratioP1;P1;durP2;ratioP2;P2;SDS_P1;SDS_P2;PMS_P1;PMS_P2;Temp;Humidity;BMP_temperature;BMP_pressure;BME280_temperature;BME280_humidity;BME280_pressure;Samples;Min_cycle;Max_cycle;Signal;HPM_P1;HPM_P2
2022/05/14 00:00:50;;;;;;;14.07;3.35;;;11.90;99.90;;;;;;5016857;28;20041;-73
2022/05/14 00:03:16;;;;;;;12.85;3.40;;;12.00;99.90;;;;;;5000227;28;20029;-73
2022/05/14 00:05:42;;;;;;;15.38;3.90;;;12.00;99.90;;;;;;5000389;28;20030;-73
2022/05/14 00:08:09;;;;;;;9.30;3.33;;;12.00;99.90;;;;;;5000007;28;20039;-73
2022/05/14 00:13:03;;;;;;;13.23;3.40;;;12.00;99.90;;;;;;5003106;28;20038;-73
2022/05/14 00:13:22;;;;;;;13.60;3.35;;;12.00;99.90;;;;;;4999076;28;20081;-73
2022/05/14 00:15:48;;;;;;;13.98;3.00;;;12.00;99.90;;;;;;4998875;28;20452;-73
2022/05/14 00:18:13;;;;;;;13.07;3.35;;;12.10;99.90;;;;;;4998633;28;20065;-72
2022/05/14 00:20:40;;;;;;;10.82;2.88;;;12.10;99.90;;;;;;5000737;28;20156;-72
2022/05/14 00:23:06;;;;;;;15.02;3.22;;;12.20;99.90;;;;;;4997928;28;20125;-72
2022/05/14 00:25:34;;;;;;;7.57;3.35;;;12.20;99.90;;;;;;5016619;28;20042;-73
2022/05/14 00:28:00;;;;;;;12.77;2.97;;;12.20;99.90;;;;;;5001756;28;20097;-73
2022/05/14 00:30:28;;;;;;;9.82;3.30;;;12.20;99.90;;;;;;5004759;28;20034;-73
2022/05/14 00:32:54;;;;;;;11.07;3.15;;;12.20;99.90;;;;;;5001855;28;20034;-73
2022/05/14 00:35:20;;;;;;;9.25;3.00;;;12.30;99.90;;;;;;5004122;28;20100;-73
2022/05/14 00:37:46;;;;;;;9.80;3.42;;;12.20;99.90;;;;;;5003120;28;20084;-73
2022/05/14 00:40:25;;;;;;;10.82;3.35;;;12.20;99.90;;;;;;5005514;28;20051;-73
2022/05/14 00:42:52;;;;;;;10.38;3.25;;;12.20;99.90;;;;;;5002641;28;20571;-73
2022/05/14 00:45:19;;;;;;;10.30;3.13;;;12.20;99.90;;;;;;5007697;28;20133;-73
2022/05/14 00:47:48;;;;;;;12.18;3.38;;;12.10;99.90;;;;;;5006433;28;20049;-73
2022/05/14 00:50:20;;;;;;;10.82;3.35;;;12.10;99.90;;;;;;5004765;28;20092;-73
2022/05/14 00:52:45;;;;;;;13.80;3.47;;;12.10;99.90;;;;;;5024130;28;20116;-73
2022/05/14 00:55:11;;;;;;;12.55;3.45;;;12.10;99.90;;;;;;5009449;28;20052;-73
2022/05/14 00:57:40;;;;;;;11.65;3.60;;;12.10;99.90;;;;;;5002090;28;20077;-72
2022/05/14 01:00:17;;;;;;;10.02;3.30;;;12.10;99.90;;;;;;5002356;28;20042;-73
2022/05/14 01:02:43;;;;;;;12.00;3.22;;;12.00;99.90;;;;;;5022860;28;20101;-73
2022/05/14 01:05:10;;;;;;;10.25;3.10;;;12.00;99.90;;;;;;4991170;28;20065;-73
2022/05/14 01:07:37;;;;;;;14.48;3.63;;;12.00;99.90;;;;;;5000929;28;20042;-73
2022/05/14 01:10:06;;;;;;;9.00;3.40;;;12.10;99.90;;;;;;5021322;28;20042;-74
2022/05/14 01:12:34;;;;;;;12.48;3.50;;;12.00;99.90;;;;;;4987095;28;20101;-75
2022/05/14 01:15:18;;;;;;;12.35;3.42;;;12.00;99.90;;;;;;5017259;28;20048;-75
2022/05/14 01:17:44;;;;;;;14.50;3.67;;;12.00;99.90;;;;;;5018735;28;20121;-74
2022/05/14 01:20:11;;;;;;;11.82;3.63;;;12.00;99.90;;;;;;5002722;28;20041;-75
2022/05/14 01:23:01;;;;;;;10.93;3.20;;;12.10;99.90;;;;;;5004448;28;20115;-74
2022/05/14 01:28:24;;;;;;;10.70;3.42;;;12.00;99.90;;;;;;5001127;28;20480;-75
2022/05/14 01:31:00;;;;;;;13.32;3.50;;;12.00;99.90;;;;;;5019967;28;20057;-74
2022/05/14 01:33:27;;;;;;;14.55;4.10;;;12.00;99.90;;;;;;5001054;28;20042;-76
2022/05/14 01:35:54;;;;;;;11.68;3.75;;;12.00;99.90;;;;;;5020407;28;20042;-74
2022/05/14 01:38:21;;;;;;;10.98;4.07;;;12.00;99.90;;;;;;5002278;28;20560;-74
2022/05/14 01:40:47;;;;;;;12.23;3.67;;;12.00;99.90;;;;;;4999325;28;20503;-74
2022/05/14 01:43:14;;;;;;;12.95;3.95;;;11.90;99.90;;;;;;5001745;28;20092;-74
2022/05/14 01:45:39;;;;;;;17.83;4.38;;;11.90;99.90;;;;;;5000282;28;20130;-74
2022/05/14 01:48:06;;;;;;;11.98;3.78;;;11.90;99.90;;;;;;4986250;28;20121;-74
2022/05/14 01:50:32;;;;;;;14.68;3.90;;;11.80;99.90;;;;;;5020273;28;20092;-74
2022/05/14 01:52:57;;;;;;;11.85;3.70;;;11.90;99.90;;;;;;5005362;28;20058;-74
2022/05/14 01:55:23;;;;;;;13.23;4.10;;;11.80;99.90;;;;;;5003379;28;20471;-75
2022/05/14 01:57:49;;;;;;;11.93;4.10;;;11.80;99.90;;;;;;4986710;28;20129;-75
2022/05/14 02:00:16;;;;;;;13.27;4.28;;;11.70;99.90;;;;;;5003654;28;20040;-74
2022/05/14 02:02:42;;;;;;;15.20;4.47;;;11.70;99.90;;;;;;5001578;28;20084;-74
2022/05/14 02:05:08;;;;;;;14.63;4.00;;;11.70;99.90;;;;;;5001452;28;20061;-74
2022/05/14 02:07:34;;;;;;;11.57;3.97;;;11.70;99.90;;;;;;5016367;28;20533;-73
2022/05/14 02:09:59;;;;;;;16.65;4.85;;;11.70;99.90;;;;;;5002586;28;20053;-73
2022/05/14 02:12:25;;;;;;;15.32;4.68;;;11.80;99.90;;;;;;5005209;28;20365;-72
2022/05/14 02:14:51;;;;;;;16.13;4.30;;;11.70;99.90;;;;;;5004498;28;20038;-73
2022/05/14 02:17:16;;;;;;;15.35;4.28;;;11.80;99.90;;;;;;5002192;28;20121;-73
2022/05/14 02:19:42;;;;;;;11.68;4.10;;;11.80;99.90;;;;;;5003508;28;20046;-73
2022/05/14 02:22:08;;;;;;;16.05;4.25;;;11.80;99.90;;;;;;5018660;28;20481;-72
2022/05/14 02:24:35;;;;;;;13.30;4.10;;;11.70;99.90;;;;;;4999962;28;20046;-72
2022/05/14 02:27:02;;;;;;;17.65;4.80;;;11.70;99.90;;;;;;4991063;28;20046;-73
2022/05/14 02:29:50;;;;;;;16.02;4.75;;;11.60;99.90;;;;;;5000128;28;20121;-73
2022/05/14 02:32:13;;;;;;;18.20;4.95;;;11.50;99.90;;;;;;4995628;28;20041;-73
2022/05/14 02:34:39;;;;;;;18.35;4.88;;;11.40;99.90;;;;;;4999471;28;20053;-72
2022/05/14 02:37:04;;;;;;;15.90;5.18;;;11.40;99.90;;;;;;4997972;28;20037;-72
2022/05/14 02:39:30;;;;;;;20.35;5.55;;;11.40;99.90;;;;;;5001972;28;20041;-73
2022/05/14 02:41:56;;;;;;;19.27;5.22;;;11.40;99.90;;;;;;5003317;28;20033;-73
2022/05/14 02:44:21;;;;;;;15.02;5.35;;;11.40;99.90;;;;;;4984450;28;20042;-73
2022/05/14 02:46:47;;;;;;;16.50;5.78;;;11.30;99.90;;;;;;5002025;28;20042;-73
2022/05/14 02:49:13;;;;;;;22.60;5.97;;;11.30;99.90;;;;;;5002394;28;20099;-72
2022/05/14 02:51:38;;;;;;;18.73;5.97;;;11.30;99.90;;;;;;5002352;28;20046;-72
2022/05/14 02:54:04;;;;;;;17.95;5.65;;;11.30;99.90;;;;;;5002038;28;20049;-74
2022/05/14 02:56:30;;;;;;;23.98;7.05;;;11.30;99.90;;;;;;5014175;28;20042;-74
2022/05/14 02:59:08;;;;;;;22.30;6.28;;;11.20;99.90;;;;;;4986778;28;20048;-74
2022/05/14 03:01:35;;;;;;;12.65;5.35;;;11.20;99.90;;;;;;4996374;28;20090;-72
2022/05/14 03:04:01;;;;;;;21.00;6.40;;;11.10;99.90;;;;;;4998717;28;20038;-72
2022/05/14 03:06:27;;;;;;;20.67;6.40;;;11.00;99.90;;;;;;4999045;28;20049;-72
2022/05/14 03:08:53;;;;;;;15.77;5.60;;;10.90;99.90;;;;;;4999890;28;20042;-73
2022/05/14 03:11:20;;;;;;;19.58;6.38;;;10.90;99.90;;;;;;4996673;28;20103;-72
2022/05/14 03:13:45;;;;;;;17.10;6.65;;;10.90;99.90;;;;;;5014063;28;20126;-72
2022/05/14 03:16:12;;;;;;;17.48;5.88;;;10.90;99.90;;;;;;4999920;28;20128;-72
2022/05/14 03:18:37;;;;;;;19.67;6.43;;;10.90;99.90;;;;;;5000311;28;20038;-73
2022/05/14 03:21:03;;;;;;;18.20;5.70;;;10.80;99.90;;;;;;5002476;28;20187;-72
2022/05/14 03:23:29;;;;;;;24.63;6.70;;;10.80;99.90;;;;;;4996972;28;20041;-72
2022/05/14 03:25:55;;;;;;;18.13;6.57;;;10.80;99.90;;;;;;4997534;28;20480;-73
2022/05/14 03:28:20;;;;;;;26.13;7.20;;;10.80;99.90;;;;;;4996784;28;20469;-73
2022/05/14 03:30:46;;;;;;;20.42;6.93;;;10.80;99.90;;;;;;4995612;28;20030;-73
2022/05/14 03:33:12;;;;;;;22.13;7.43;;;10.70;99.90;;;;;;4998547;28;20127;-72
2022/05/14 03:35:37;;;;;;;23.20;7.68;;;10.80;99.90;;;;;;5018833;28;20069;-72
2022/05/14 03:38:03;;;;;;;23.75;7.70;;;10.70;99.90;;;;;;5002984;28;20038;-72
2022/05/14 03:40:29;;;;;;;20.25;6.93;;;10.80;99.90;;;;;;4999604;28;20137;-73
2022/05/14 03:42:54;;;;;;;18.38;6.88;;;10.70;99.90;;;;;;5000143;28;20038;-72
2022/05/14 03:45:20;;;;;;;23.25;7.15;;;10.70;99.90;;;;;;5001082;28;20041;-72
2022/05/14 03:47:46;;;;;;;25.45;7.10;;;10.70;99.90;;;;;;4987273;28;20061;-73
2022/05/14 03:50:12;;;;;;;25.13;7.28;;;10.70;99.90;;;;;;5000309;28;20061;-73
2022/05/14 03:52:38;;;;;;;23.70;7.82;;;10.60;99.90;;;;;;5002953;28;20116;-72
2022/05/14 03:55:04;;;;;;;22.23;8.10;;;10.60;99.90;;;;;;4998990;28;20501;-72
2022/05/14 03:57:30;;;;;;;25.38;7.80;;;10.60;99.90;;;;;;4997876;28;20041;-72
2022/05/14 03:59:56;;;;;;;22.13;7.28;;;10.60;99.90;;;;;;5000930;28;20030;-72
2022/05/14 04:02:23;;;;;;;18.48;6.65;;;10.70;99.90;;;;;;5003547;28;20060;-73
2022/05/14 04:04:49;;;;;;;20.08;7.22;;;10.50;99.90;;;;;;5002369;28;20052;-72
2022/05/14 04:07:14;;;;;;;27.35;8.25;;;10.50;99.90;;;;;;5008535;28;20488;-72
2022/05/14 04:09:40;;;;;;;20.25;7.47;;;10.50;99.90;;;;;;5019231;28;20118;-72
2022/05/14 04:12:06;;;;;;;33.67;8.77;;;10.50;99.90;;;;;;5002539;28;20061;-72
2022/05/14 04:14:32;;;;;;;24.08;8.07;;;10.50;99.90;;;;;;5001175;28;20048;-72
2022/05/14 04:16:58;;;;;;;23.83;8.13;;;10.50;99.90;;;;;;5002820;28;20133;-74
2022/05/14 04:19:25;;;;;;;24.63;8.05;;;10.50;99.90;;;;;;5021751;28;20038;-74
2022/05/14 04:21:51;;;;;;;25.50;8.77;;;10.60;99.90;;;;;;5003105;28;20035;-74
2022/05/14 04:24:17;;;;;;;25.75;8.77;;;10.60;99.90;;;;;;5004552;28;20392;-74
2022/05/14 04:26:43;;;;;;;22.48;8.05;;;10.60;99.90;;;;;;5032193;23;20045;-72
2022/05/14 04:29:09;;;;;;;22.95;8.23;;;10.70;99.90;;;;;;5010154;28;20049;-73
2022/05/14 04:31:35;;;;;;;30.85;9.32;;;10.70;99.90;;;;;;5027324;28;20072;-73
2022/05/14 04:34:01;;;;;;;23.27;8.27;;;10.70;99.90;;;;;;5010640;28;20124;-73
2022/05/14 04:36:27;;;;;;;23.52;8.10;;;10.70;99.90;;;;;;5010722;28;21993;-73
2022/05/14 04:38:52;;;;;;;25.05;8.98;;;10.70;99.90;;;;;;5027585;28;20400;-73
2022/05/14 04:41:18;;;;;;;24.00;9.50;;;10.70;99.90;;;;;;5028700;28;20107;-73
2022/05/14 04:43:44;;;;;;;23.48;8.40;;;10.70;99.90;;;;;;5027248;28;20491;-73
2022/05/14 04:46:10;;;;;;;27.92;9.88;;;10.80;99.90;;;;;;5027213;28;20075;-73
2022/05/14 04:48:37;;;;;;;29.45;9.32;;;10.80;99.90;;;;;;5026594;28;20041;-73
2022/05/14 04:51:03;;;;;;;32.60;10.02;;;10.80;99.90;;;;;;5024987;28;20072;-73
2022/05/14 04:53:29;;;;;;;25.17;9.23;;;10.90;99.90;;;;;;5026197;28;22006;-73
2022/05/14 04:55:54;;;;;;;28.63;10.25;;;10.90;99.90;;;;;;5028613;28;20045;-73
2022/05/14 04:58:20;;;;;;;26.25;9.55;;;11.00;99.90;;;;;;5025887;28;20045;-73
2022/05/14 05:00:46;;;;;;;27.65;9.50;;;11.00;99.90;;;;;;5026119;28;20064;-73
2022/05/14 05:03:19;;;;;;;33.92;10.07;;;11.00;99.90;;;;;;5025656;28;20495;-73
2022/05/14 05:06:06;;;;;;;28.45;9.70;;;11.00;99.90;;;;;;5025568;28;20037;-73
2022/05/14 05:08:33;;;;;;;29.23;10.27;;;11.10;99.90;;;;;;5025719;28;20407;-73
2022/05/14 05:10:59;;;;;;;28.50;10.10;;;11.10;99.90;;;;;;5028330;28;20050;-73
2022/05/14 05:13:28;;;;;;;26.90;10.20;;;11.20;99.90;;;;;;5026531;28;20042;-73
2022/05/14 05:15:54;;;;;;;27.73;9.80;;;11.20;99.90;;;;;;5044378;28;20049;-73
2022/05/14 05:18:20;;;;;;;30.48;11.23;;;11.30;99.90;;;;;;5025208;28;20038;-73
2022/05/14 05:20:49;;;;;;;31.70;10.23;;;11.30;99.90;;;;;;5026808;28;20104;-73
2022/05/14 05:23:17;;;;;;;33.55;11.15;;;11.40;99.90;;;;;;5030055;28;20376;-73
2022/05/14 05:25:45;;;;;;;36.05;11.57;;;11.50;99.90;;;;;;5032144;28;20048;-73
2022/05/14 05:28:10;;;;;;;31.38;11.30;;;11.50;99.90;;;;;;5030806;28;20033;-72
2022/05/14 05:30:36;;;;;;;33.42;11.13;;;11.60;99.90;;;;;;5032696;28;20114;-72
2022/05/14 05:33:02;;;;;;;37.72;11.23;;;11.60;99.90;;;;;;5031177;28;20037;-72
2022/05/14 05:35:28;;;;;;;29.27;10.40;;;11.70;99.90;;;;;;5031834;28;20502;-72
2022/05/14 05:37:54;;;;;;;37.88;11.23;;;11.80;99.90;;;;;;5029188;28;20041;-72
2022/05/14 05:40:20;;;;;;;34.95;11.45;;;11.90;99.90;;;;;;5030616;28;20103;-72
2022/05/14 05:42:46;;;;;;;42.70;12.13;;;12.00;99.90;;;;;;5024354;28;20454;-72
2022/05/14 05:45:15;;;;;;;34.03;10.68;;;12.10;99.90;;;;;;5033273;28;20038;-73
2022/05/14 05:47:41;;;;;;;33.15;10.27;;;12.10;99.90;;;;;;5015470;28;20037;-73
2022/05/14 05:50:07;;;;;;;32.17;10.48;;;12.20;99.90;;;;;;5012660;28;20099;-73
2022/05/14 05:52:33;;;;;;;33.95;11.15;;;12.30;99.90;;;;;;5035002;28;20388;-73
2022/05/14 05:57:43;;;;;;;34.17;9.88;;;12.50;99.90;;;;;;5035722;28;20045;-73
2022/05/14 06:00:23;;;;;;;30.67;10.02;;;12.60;99.90;;;;;;5035644;28;20041;-73
2022/05/14 06:02:49;;;;;;;37.13;11.27;;;12.70;99.90;;;;;;5049228;28;20116;-72
2022/05/14 06:05:16;;;;;;;40.72;12.30;;;12.70;99.90;;;;;;5033850;28;20029;-73
2022/05/14 06:07:42;;;;;;;38.13;11.25;;;12.90;99.90;;;;;;5032925;28;20040;-72
2022/05/14 06:10:11;;;;;;;37.30;12.20;;;13.00;99.90;;;;;;5024204;28;20112;-72
2022/05/14 06:12:38;;;;;;;37.65;11.85;;;13.10;99.90;;;;;;5023364;28;20129;-72
2022/05/14 06:15:09;;;;;;;30.25;10.55;;;13.20;99.90;;;;;;5030048;28;20420;-72
2022/05/14 06:17:35;;;;;;;38.38;11.10;;;13.30;99.90;;;;;;5026290;28;20040;-72
2022/05/14 06:20:02;;;;;;;32.83;11.13;;;13.40;99.90;;;;;;5047618;28;20033;-72
2022/05/14 06:22:28;;;;;;;36.92;10.75;;;13.60;99.90;;;;;;5027821;28;20124;-72
2022/05/14 06:24:54;;;;;;;39.13;11.43;;;13.70;99.90;;;;;;5026869;28;20081;-72
2022/05/14 06:27:20;;;;;;;33.08;10.18;;;13.80;99.90;;;;;;5029318;28;20060;-72
2022/05/14 06:29:46;;;;;;;33.70;10.05;;;13.90;99.90;;;;;;5028827;28;20107;-72
2022/05/14 06:32:11;;;;;;;31.25;9.35;;;14.00;99.90;;;;;;5027875;28;20051;-73
2022/05/14 06:34:37;;;;;;;33.10;8.82;;;14.00;99.90;;;;;;5023172;28;20045;-73
2022/05/14 06:37:03;;;;;;;32.65;9.40;;;14.10;99.90;;;;;;5019605;28;20120;-73
2022/05/14 06:39:29;;;;;;;26.17;9.20;;;14.20;99.90;;;;;;5027697;28;20047;-73
2022/05/14 06:41:57;;;;;;;34.55;9.20;;;14.30;99.90;;;;;;5029465;28;20037;-72
2022/05/14 06:44:22;;;;;;;29.35;8.52;;;14.30;99.90;;;;;;5029934;28;20034;-72
2022/05/14 06:46:48;;;;;;;30.20;9.98;;;14.40;99.90;;;;;;5027612;28;20043;-73
2022/05/14 06:49:14;;;;;;;36.33;10.50;;;14.50;99.90;;;;;;5022182;28;20442;-72
2022/05/14 06:51:40;;;;;;;31.40;9.07;;;14.50;99.90;;;;;;5029997;28;20503;-72
2022/05/14 06:54:08;;;;;;;37.45;9.32;;;14.70;99.90;;;;;;5029884;28;20082;-72
2022/05/14 06:56:39;;;;;;;28.00;8.77;;;14.70;99.90;;;;;;5029746;28;20038;-73
2022/05/14 06:59:04;;;;;;;25.05;8.57;;;14.80;99.90;;;;;;5029277;28;20038;-72
2022/05/14 07:01:30;;;;;;;28.92;9.30;;;14.90;99.90;;;;;;5029171;28;20402;-71
2022/05/14 07:06:45;;;;;;;26.30;8.88;;;15.10;99.90;;;;;;5021597;28;20045;-72
2022/05/14 07:09:29;;;;;;;25.38;9.63;;;15.20;99.90;;;;;;5029578;28;20494;-72
2022/05/14 07:12:08;;;;;;;32.50;11.05;;;15.30;99.90;;;;;;5020149;28;20045;-72
2022/05/14 07:14:34;;;;;;;31.77;9.77;;;15.30;99.90;;;;;;5022594;28;20087;-73
2022/05/14 07:17:00;;;;;;;30.98;9.02;;;15.50;99.90;;;;;;5028488;28;20128;-72
2022/05/14 07:19:26;;;;;;;24.25;8.13;;;15.60;99.90;;;;;;5029601;28;20547;-72
2022/05/14 07:21:53;;;;;;;21.70;8.82;;;15.70;99.90;;;;;;5023532;28;20494;-73
2022/05/14 07:24:23;;;;;;;25.95;8.85;;;15.80;99.90;;;;;;5029532;28;20443;-73
2022/05/14 07:26:51;;;;;;;30.10;8.95;;;15.90;99.90;;;;;;5010207;28;20564;-73
2022/05/14 07:29:20;;;;;;;25.13;8.35;;;16.00;99.90;;;;;;5023586;28;20092;-73
2022/05/14 07:31:46;;;;;;;23.63;8.60;;;16.10;99.90;;;;;;5028340;28;20029;-73
2022/05/14 07:34:12;;;;;;;27.23;8.52;;;16.10;99.90;;;;;;5026125;28;20446;-73
2022/05/14 07:37:01;;;;;;;26.00;8.30;;;16.20;99.90;;;;;;5022584;28;20038;-72
2022/05/14 07:39:32;;;;;;;24.35;7.65;;;16.30;99.90;;;;;;5038180;28;20061;-71
2022/05/14 07:42:02;;;;;;;25.85;6.93;;;16.30;99.90;;;;;;5023181;28;20049;-72
2022/05/14 07:44:36;;;;;;;24.90;7.35;;;16.40;99.90;;;;;;5020843;28;20037;-73
2022/05/14 07:47:02;;;;;;;23.38;7.72;;;16.50;99.90;;;;;;5022536;28;20095;-73
2022/05/14 07:49:28;;;;;;;25.92;7.88;;;16.60;99.90;;;;;;5037082;28;20557;-73
2022/05/14 07:51:55;;;;;;;27.60;8.43;;;16.60;99.90;;;;;;5025540;28;20042;-72
2022/05/14 07:54:22;;;;;;;25.67;7.63;;;16.80;99.90;;;;;;5030301;28;20056;-73
2022/05/14 07:56:48;;;;;;;25.92;7.20;;;16.90;99.90;;;;;;5024836;28;20037;-72
2022/05/14 07:59:15;;;;;;;27.23;7.53;;;17.00;99.90;;;;;;4997863;28;20049;-73
2022/05/14 08:01:59;;;;;;;24.23;6.93;;;17.00;99.90;;;;;;5029421;28;20041;-72
2022/05/14 08:04:25;;;;;;;34.53;7.93;;;17.10;99.90;;;;;;5025733;28;20037;-73
2022/05/14 08:06:51;;;;;;;27.77;7.80;;;17.10;99.90;;;;;;5030398;28;20607;-73
2022/05/14 08:09:16;;;;;;;23.05;7.57;;;17.30;99.90;;;;;;5030167;28;20077;-72
2022/05/14 08:11:42;;;;;;;31.10;7.68;;;17.40;99.90;;;;;;5030231;28;20513;-72
2022/05/14 08:14:08;;;;;;;25.40;7.50;;;17.50;99.90;;;;;;5025126;28;20487;-73
2022/05/14 08:16:33;;;;;;;28.83;7.82;;;17.70;99.90;;;;;;5024996;28;20240;-72
2022/05/14 08:19:08;;;;;;;26.33;6.90;;;17.80;99.90;;;;;;5025165;28;20056;-73
2022/05/14 08:24:36;;;;;;;25.10;6.25;;;18.00;99.90;;;;;;5027972;28;20037;-73
2022/05/14 08:27:05;;;;;;;24.65;6.18;;;17.90;99.90;;;;;;5023927;28;20037;-73
2022/05/14 08:29:32;;;;;;;24.88;6.20;;;18.20;99.90;;;;;;5024855;28;20041;-73
2022/05/14 08:31:58;;;;;;;23.98;6.03;;;18.30;99.90;;;;;;5005384;28;20041;-73
2022/05/14 08:34:24;;;;;;;21.42;6.60;;;18.60;99.90;;;;;;5026014;28;20102;-73
2022/05/14 08:36:50;;;;;;;27.20;6.53;;;18.70;99.90;;;;;;5009336;28;20109;-73
2022/05/14 08:39:17;;;;;;;25.70;6.15;;;18.60;99.90;;;;;;5042355;28;20542;-74
2022/05/14 08:41:47;;;;;;;22.00;5.75;;;18.40;99.90;;;;;;5009365;28;20479;-72
2022/05/14 08:44:27;;;;;;;25.40;6.63;;;18.50;99.90;;;;;;5038856;28;20037;-72
2022/05/14 08:46:56;;;;;;;19.20;5.43;;;18.60;99.90;;;;;;5020066;28;20045;-72
2022/05/14 08:49:34;;;;;;;23.08;5.75;;;18.50;98.70;;;;;;5028315;28;20029;-72
2022/05/14 08:52:01;;;;;;;18.95;4.90;;;18.60;98.20;;;;;;5026262;28;20025;-72
2022/05/14 08:54:27;;;;;;;25.83;5.93;;;18.80;99.80;;;;;;5027936;28;20041;-72
2022/05/14 08:57:20;;;;;;;21.00;5.88;;;18.90;97.40;;;;;;5024630;28;20076;-72
2022/05/14 08:59:54;;;;;;;;;;;19.00;92.60;;;;;;5010025;28;20041;-71
2022/05/14 09:02:34;;;;;;;22.20;5.80;;;19.20;94.70;;;;;;5039071;28;19921;-72
2022/05/14 09:05:02;;;;;;;21.50;5.68;;;19.60;94.50;;;;;;5024683;28;20049;-73
2022/05/14 09:07:28;;;;;;;20.10;5.38;;;19.40;92.80;;;;;;5010783;28;20109;-73
2022/05/14 09:09:56;;;;;;;20.10;5.28;;;19.60;92.20;;;;;;5041122;28;20180;-72
2022/05/14 09:12:25;;;;;;;21.40;5.40;;;19.60;91.50;;;;;;5028234;28;20037;-73
2022/05/14 09:14:58;;;;;;;22.90;5.72;;;19.60;95.80;;;;;;5027275;28;20033;-73
2022/05/14 09:17:27;;;;;;;22.02;5.88;;;19.60;92.40;;;;;;5027920;28;20044;-74
2022/05/14 09:19:54;;;;;;;21.10;5.97;;;19.50;93.10;;;;;;5024769;28;20056;-74
2022/05/14 09:22:22;;;;;;;23.67;5.65;;;19.30;95.70;;;;;;5029012;28;20076;-74
2022/05/14 09:25:03;;;;;;;16.25;4.80;;;19.10;95.50;;;;;;5023359;28;20038;-75
2022/05/14 09:27:43;;;;;;;22.70;6.15;;;19.10;98.50;;;;;;5029204;28;20065;-73
2022/05/14 09:30:21;;;;;;;21.05;5.80;;;19.10;95.10;;;;;;5027151;28;20041;-73
2022/05/14 09:32:49;;;;;;;24.10;5.55;;;19.30;96.50;;;;;;5023735;28;20116;-74
2022/05/14 09:35:21;;;;;;;28.00;5.88;;;19.20;93.70;;;;;;5039818;28;20044;-74
2022/05/14 09:37:47;;;;;;;24.90;5.28;;;19.20;97.50;;;;;;5040155;28;20067;-74
2022/05/14 09:40:23;;;;;;;24.27;5.80;;;19.10;98.50;;;;;;5025027;28;20072;-74
2022/05/14 09:42:52;;;;;;;25.35;5.68;;;19.00;99.40;;;;;;5024263;28;20029;-74
2022/05/14 09:45:32;;;;;;;24.10;6.13;;;18.70;98.60;;;;;;5026342;28;20046;-73
2022/05/14 09:48:13;;;;;;;24.77;6.30;;;18.60;99.50;;;;;;5024338;28;20037;-74
2022/05/14 09:50:41;;;;;;;28.02;6.40;;;18.70;99.90;;;;;;5026726;28;20077;-73
2022/05/14 09:53:08;;;;;;;22.83;6.28;;;19.00;99.20;;;;;;5024853;28;20045;-73
2022/05/14 09:55:40;;;;;;;25.63;5.85;;;19.20;99.90;;;;;;5025309;28;20096;-73
2022/05/14 09:58:21;;;;;;;23.23;6.18;;;19.70;99.50;;;;;;5042390;28;20128;-73
2022/05/14 10:01:05;;;;;;;26.48;6.50;;;20.00;96.40;;;;;;5023171;28;20041;-74
2022/05/14 10:03:40;;;;;;;24.17;6.22;;;20.00;90.60;;;;;;5025314;28;20169;-73
2022/05/14 10:06:24;;;;;;;25.42;5.60;;;20.10;93.70;;;;;;5025410;28;20034;-74
2022/05/14 10:09:02;;;;;;;22.77;5.85;;;20.30;94.20;;;;;;5026614;28;20094;-74
2022/05/14 10:11:34;;;;;;;21.90;6.00;;;20.40;88.40;;;;;;5025817;28;20048;-73
2022/05/14 10:14:20;;;;;;;22.33;5.80;;;20.10;87.80;;;;;;5021860;28;20048;-74
2022/05/14 10:16:57;;;;;;;22.80;5.00;;;20.00;90.10;;;;;;5027068;28;20044;-74
2022/05/14 10:19:54;;;;;;;18.83;4.75;;;19.70;91.90;;;;;;5028291;28;20065;-73
2022/05/14 10:28:44;;;;;;;17.20;5.05;;;20.40;91.90;;;;;;5041164;28;20049;-74
2022/05/14 10:31:25;;;;;;;19.15;5.00;;;20.70;82.10;;;;;;5025662;28;20042;-74
2022/05/14 10:33:55;;;;;;;22.98;4.75;;;20.90;73.80;;;;;;5008015;28;20124;-74
2022/05/14 10:36:42;;;;;;;22.63;5.35;;;21.20;71.60;;;;;;5025408;28;20514;-74
2022/05/14 10:39:17;;;;;;;19.42;4.85;;;21.20;71.90;;;;;;5024765;28;20037;-73
2022/05/14 10:41:47;;;;;;;21.30;4.70;;;21.10;70.00;;;;;;5038201;28;20037;-74
2022/05/14 10:44:38;;;;;;;17.98;4.78;;;21.00;68.20;;;;;;5027182;28;20053;-73
2022/05/14 10:47:09;;;;;;;17.10;4.60;;;20.90;63.10;;;;;;5025278;28;20049;-73
2022/05/14 10:49:49;;;;;;;19.70;4.63;;;21.20;64.40;;;;;;5023023;28;20038;-74
2022/05/14 10:52:16;;;;;;;16.95;4.82;;;21.50;62.50;;;;;;5006735;28;20037;-73
2022/05/14 10:54:43;;;;;;;20.13;4.63;;;21.70;58.90;;;;;;5009569;28;20095;-74
2022/05/14 10:57:15;;;;;;;17.75;4.75;;;22.00;62.90;;;;;;5025592;28;20044;-74
2022/05/14 10:59:46;;;;;;;21.30;5.55;;;22.40;64.10;;;;;;5007166;28;20053;-74
2022/05/14 11:02:25;;;;;;;18.35;5.00;;;22.60;64.00;;;;;;5022820;28;20041;-74
2022/05/14 11:04:52;;;;;;;18.58;5.38;;;22.50;61.90;;;;;;5022961;28;20038;-74
2022/05/14 11:07:26;;;;;;;17.33;5.20;;;22.50;65.80;;;;;;5024708;28;20041;-74
2022/05/14 11:09:52;;;;;;;19.85;5.03;;;22.70;65.90;;;;;;5021851;28;20042;-74
2022/05/14 11:12:18;;;;;;;18.92;5.10;;;23.00;63.30;;;;;;5020439;28;20044;-74
2022/05/14 11:14:54;;;;;;;15.93;4.47;;;23.30;59.50;;;;;;5024793;28;20045;-74
2022/05/14 11:17:21;;;;;;;19.98;5.07;;;23.50;62.70;;;;;;5023551;28;20048;-74
2022/05/14 11:19:47;;;;;;;16.42;4.70;;;23.60;58.60;;;;;;5025950;28;20526;-74
2022/05/14 11:22:23;;;;;;;17.40;5.35;;;23.50;58.20;;;;;;5023829;28;20095;-74
2022/05/14 11:24:50;;;;;;;20.02;6.38;;;23.60;56.00;;;;;;5025339;28;20678;-74
2022/05/14 11:27:37;;;;;;;18.63;5.40;;;23.80;57.00;;;;;;5023298;28;20069;-74
2022/05/14 11:30:08;;;;;;;19.17;4.70;;;23.90;56.60;;;;;;5023914;28;20037;-75
2022/05/14 11:32:51;;;;;;;20.17;5.13;;;23.60;53.50;;;;;;5008455;28;20387;-74
2022/05/14 11:35:17;;;;;;;19.20;4.97;;;23.40;55.10;;;;;;5025465;28;20171;-74
2022/05/14 11:37:50;;;;;;;19.20;5.00;;;23.20;55.60;;;;;;5023348;28;20045;-74
2022/05/14 11:40:22;;;;;;;20.73;5.85;;;23.00;57.30;;;;;;5025570;28;20030;-75
2022/05/14 11:42:53;;;;;;;19.63;5.13;;;23.10;58.70;;;;;;5026076;28;20047;-74
2022/05/14 11:45:23;;;;;;;21.98;4.97;;;23.40;56.70;;;;;;5024679;28;20514;-75
2022/05/14 11:48:16;;;;;;;18.50;4.78;;;23.70;57.50;;;;;;5028504;28;20037;-74
2022/05/14 11:51:15;;;;;;;19.35;5.22;;;23.80;55.90;;;;;;5025852;28;20034;-74
2022/05/14 11:53:48;;;;;;;16.95;4.90;;;23.70;54.80;;;;;;5025176;28;20084;-75
2022/05/14 11:56:19;;;;;;;18.33;5.07;;;23.30;52.80;;;;;;5028386;28;20242;-74
2022/05/14 11:58:52;;;;;;;;;;;23.30;54.40;;;;;;4997867;28;20048;-74
2022/05/14 12:01:26;;;;;;;17.77;4.82;;;23.30;54.20;;;;;;5025403;28;19917;-74
2022/05/14 12:03:53;;;;;;;16.10;4.30;;;23.60;55.10;;;;;;5024829;28;20360;-74
2022/05/14 12:06:48;;;;;;;19.40;5.13;;;23.70;53.80;;;;;;4992470;28;20072;-75
2022/05/14 12:09:31;;;;;;;19.90;5.40;;;23.80;53.30;;;;;;5024362;28;20369;-74
2022/05/14 12:11:59;;;;;;;17.42;4.90;;;23.50;54.10;;;;;;5026345;28;20439;-74
2022/05/14 12:14:34;;;;;;;17.77;5.10;;;23.30;55.00;;;;;;5024032;28;20041;-74
2022/05/14 12:17:03;;;;;;;19.05;5.35;;;23.10;53.70;;;;;;5022612;28;20496;-74
2022/05/14 12:19:28;;;;;;;19.35;4.53;;;22.90;55.90;;;;;;5021258;28;20089;-74
2022/05/14 12:22:02;;;;;;;17.65;5.03;;;22.90;55.90;;;;;;5023500;28;20083;-74
2022/05/14 12:24:37;;;;;;;17.33;4.45;;;23.20;55.60;;;;;;5026900;28;20542;-74
2022/05/14 12:27:07;;;;;;;17.85;4.78;;;23.50;55.40;;;;;;5031424;28;20135;-73
2022/05/14 12:29:34;;;;;;;17.45;5.00;;;23.90;53.50;;;;;;5029197;28;20044;-74
2022/05/14 12:34:56;;;;;;;20.73;5.43;;;24.60;51.90;;;;;;5025660;28;20135;-74
2022/05/14 12:37:47;;;;;;;17.45;4.72;;;24.30;51.30;;;;;;5028401;28;20041;-75
2022/05/14 12:40:36;;;;;;;16.80;4.43;;;24.40;51.20;;;;;;5028840;28;20057;-74
2022/05/14 12:43:05;;;;;;;17.95;4.97;;;24.50;53.10;;;;;;5027902;28;20037;-75
2022/05/14 12:45:43;;;;;;;18.65;5.38;;;24.50;52.30;;;;;;5026655;28;20188;-75
2022/05/14 12:48:11;;;;;;;16.63;4.45;;;24.40;51.60;;;;;;5030295;28;20046;-74
2022/05/14 12:50:41;;;;;;;16.52;4.75;;;24.10;51.60;;;;;;5031166;28;20042;-74
2022/05/14 12:53:11;;;;;;;19.88;5.40;;;23.80;52.10;;;;;;5029767;28;20045;-74
2022/05/14 12:55:39;;;;;;;16.02;4.55;;;23.60;53.30;;;;;;5031234;28;20076;-74
2022/05/14 12:58:06;;;;;;;19.55;5.15;;;23.80;53.30;;;;;;5031196;28;20037;-75
2022/05/14 13:00:38;;;;;;;17.48;4.68;;;24.30;53.00;;;;;;5043335;28;20056;-74
2022/05/14 13:03:41;;;;;;;17.13;4.57;;;24.50;51.80;;;;;;5026393;28;20049;-74
2022/05/14 13:06:29;;;;;;;18.20;5.10;;;24.20;49.50;;;;;;5008064;28;20057;-74
2022/05/14 13:08:59;;;;;;;17.38;4.93;;;24.00;51.40;;;;;;5043557;28;20041;-73